sensor_id;sensor_type;location;lat;lon;timestamp;P1;durP1;ratioP1;P2;durP2;ratioP2
49460;SDS011;35355;49.198;-0.368;2023-05-16T00:00:37;3.53;;;0.90;;
49460;SDS011;35355;49.198;-0.368;2023-05-16T00:03:05;8.02;;;1.30;;
49460;SDS011;35355;49.198;-0.368;2023-05-16T00:05:31;4.05;;;0.85;;
49460;SDS011;35355;49.198;-0.368;2023-05-16T00:07:57;3.78;;;1.35;;
49460;SDS011;35355;49.198;-0.368;2023-05-16T00:10:22;5.72;;;1.00;;
49460;SDS011;35355;49.198;-0.368;2023-05-16T00:12:47;6.13;;;1.27;;
49460;SDS011;35355;49.198;-0.368;2023-05-16T00:15:15;6.40;;;1.23;;
49460;SDS011;35355;49.198;-0.368;2023-05-16T00:17:41;6.35;;;0.90;;
49460;SDS011;35355;49.198;-0.368;2023-05-16T00:20:10;5.40;;;0.95;;
49460;SDS011;35355;49.198;-0.368;2023-05-16T00:22:38;2.33;;;0.80;;
49460;SDS011;35355;49.198;-0.368;2023-05-16T00:25:04;2.75;;;0.85;;
49460;SDS011;35355;49.198;-0.368;2023-05-16T00:27:32;3.58;;;0.82;;
49460;SDS011;35355;49.198;-0.368;2023-05-16T00:29:58;4.93;;;0.95;;
49460;SDS011;35355;49.198;-0.368;2023-05-16T00:32:23;3.50;;;0.63;;
49460;SDS011;35355;49.198;-0.368;2023-05-16T00:34:48;9.90;;;1.45;;
49460;SDS011;35355;49.198;-0.368;2023-05-16T00:37:14;5.55;;;0.88;;
49460;SDS011;35355;49.198;-0.368;2023-05-16T00:39:39;3.17;;;0.93;;
49460;SDS011;35355;49.198;-0.368;2023-05-16T00:42:05;2.97;;;1.10;;
49460;SDS011;35355;49.198;-0.368;2023-05-16T00:44:30;3.75;;;0.88;;
49460;SDS011;35355;49.198;-0.368;2023-05-16T00:46:56;4.45;;;0.70;;
49460;SDS011;35355;49.198;-0.368;2023-05-16T00:49:22;6.97;;;1.05;;
49460;SDS011;35355;49.198;-0.368;2023-05-16T00:51:48;3.60;;;0.98;;
49460;SDS011;35355;49.198;-0.368;2023-05-16T00:54:13;7.35;;;1.10;;
49460;SDS011;35355;49.198;-0.368;2023-05-16T00:56:39;7.97;;;1.50;;
49460;SDS011;35355;49.198;-0.368;2023-05-16T00:59:04;4.15;;;0.90;;
49460;SDS011;35355;49.198;-0.368;2023-05-16T01:01:30;7.03;;;1.77;;
49460;SDS011;35355;49.198;-0.368;2023-05-16T01:03:56;2.38;;;0.75;;
49460;SDS011;35355;49.198;-0.368;2023-05-16T01:06:22;7.80;;;1.40;;
49460;SDS011;35355;49.198;-0.368;2023-05-16T01:08:47;4.57;;;1.05;;
49460;SDS011;35355;49.198;-0.368;2023-05-16T01:14:18;5.43;;;1.00;;
49460;SDS011;35355;49.198;-0.368;2023-05-16T01:16:56;6.90;;;0.90;;
49460;SDS011;35355;49.198;-0.368;2023-05-16T01:28:07;5.15;;;1.25;;
49460;SDS011;35355;49.198;-0.368;2023-05-16T01:30:36;6.07;;;0.80;;
49460;SDS011;35355;49.198;-0.368;2023-05-16T01:33:03;6.13;;;1.17;;
49460;SDS011;35355;49.198;-0.368;2023-05-16T01:35:29;5.40;;;1.25;;
49460;SDS011;35355;49.198;-0.368;2023-05-16T01:38:00;4.50;;;1.23;;
49460;SDS011;35355;49.198;-0.368;2023-05-16T01:40:45;4.72;;;0.82;;
49460;SDS011;35355;49.198;-0.368;2023-05-16T01:43:19;6.22;;;1.17;;
49460;SDS011;35355;49.198;-0.368;2023-05-16T01:45:55;11.13;;;1.63;;
49460;SDS011;35355;49.198;-0.368;2023-05-16T01:48:29;5.90;;;1.10;;
49460;SDS011;35355;49.198;-0.368;2023-05-16T01:50:58;9.38;;;1.50;;
49460;SDS011;35355;49.198;-0.368;2023-05-16T01:53:27;3.17;;;0.60;;
49460;SDS011;35355;49.198;-0.368;2023-05-16T01:55:56;6.28;;;1.08;;
49460;SDS011;35355;49.198;-0.368;2023-05-16T01:58:26;9.25;;;1.25;;
49460;SDS011;35355;49.198;-0.368;2023-05-16T02:00:58;6.07;;;1.25;;
49460;SDS011;35355;49.198;-0.368;2023-05-16T02:03:26;2.42;;;0.85;;
49460;SDS011;35355;49.198;-0.368;2023-05-16T02:05:52;6.97;;;1.00;;
49460;SDS011;35355;49.198;-0.368;2023-05-16T02:08:17;8.63;;;1.65;;
49460;SDS011;35355;49.198;-0.368;2023-05-16T02:10:43;7.00;;;1.48;;
49460;SDS011;35355;49.198;-0.368;2023-05-16T02:13:08;9.02;;;1.88;;
49460;SDS011;35355;49.198;-0.368;2023-05-16T02:15:33;5.78;;;1.13;;
49460;SDS011;35355;49.198;-0.368;2023-05-16T02:17:59;5.38;;;0.95;;
49460;SDS011;35355;49.198;-0.368;2023-05-16T02:20:24;4.72;;;1.55;;
49460;SDS011;35355;49.198;-0.368;2023-05-16T02:22:50;2.42;;;0.85;;
49460;SDS011;35355;49.198;-0.368;2023-05-16T02:25:15;10.50;;;1.23;;
49460;SDS011;35355;49.198;-0.368;2023-05-16T02:27:41;6.35;;;1.10;;
49460;SDS011;35355;49.198;-0.368;2023-05-16T02:30:07;6.07;;;1.13;;
49460;SDS011;35355;49.198;-0.368;2023-05-16T02:32:34;4.93;;;1.27;;
49460;SDS011;35355;49.198;-0.368;2023-05-16T02:35:00;6.57;;;1.02;;
49460;SDS011;35355;49.198;-0.368;2023-05-16T02:37:25;4.00;;;1.00;;
49460;SDS011;35355;49.198;-0.368;2023-05-16T02:39:50;3.20;;;0.80;;
49460;SDS011;35355;49.198;-0.368;2023-05-16T02:42:16;7.53;;;1.50;;
49460;SDS011;35355;49.198;-0.368;2023-05-16T02:44:41;6.53;;;1.40;;
49460;SDS011;35355;49.198;-0.368;2023-05-16T02:47:07;8.70;;;1.85;;
49460;SDS011;35355;49.198;-0.368;2023-05-16T02:49:32;3.47;;;1.00;;
49460;SDS011;35355;49.198;-0.368;2023-05-16T02:51:57;6.63;;;0.85;;
49460;SDS011;35355;49.198;-0.368;2023-05-16T02:54:23;5.60;;;1.35;;
49460;SDS011;35355;49.198;-0.368;2023-05-16T02:56:48;11.40;;;1.92;;
49460;SDS011;35355;49.198;-0.368;2023-05-16T02:59:13;3.63;;;1.15;;
49460;SDS011;35355;49.198;-0.368;2023-05-16T03:01:39;7.60;;;1.52;;
49460;SDS011;35355;49.198;-0.368;2023-05-16T03:04:04;4.20;;;1.17;;
49460;SDS011;35355;49.198;-0.368;2023-05-16T03:06:30;4.28;;;1.15;;
49460;SDS011;35355;49.198;-0.368;2023-05-16T03:08:55;5.30;;;1.85;;
49460;SDS011;35355;49.198;-0.368;2023-05-16T03:11:21;3.90;;;1.40;;
49460;SDS011;35355;49.198;-0.368;2023-05-16T03:13:48;4.60;;;1.30;;
49460;SDS011;35355;49.198;-0.368;2023-05-16T03:16:13;6.47;;;1.80;;
49460;SDS011;35355;49.198;-0.368;2023-05-16T03:18:40;4.15;;;1.20;;
49460;SDS011;35355;49.198;-0.368;2023-05-16T03:21:06;3.72;;;1.17;;
49460;SDS011;35355;49.198;-0.368;2023-05-16T03:23:31;5.85;;;1.80;;
49460;SDS011;35355;49.198;-0.368;2023-05-16T03:25:56;5.10;;;1.45;;
49460;SDS011;35355;49.198;-0.368;2023-05-16T03:28:22;9.15;;;1.73;;
49460;SDS011;35355;49.198;-0.368;2023-05-16T03:30:47;6.15;;;1.38;;
49460;SDS011;35355;49.198;-0.368;2023-05-16T03:33:13;8.65;;;1.67;;
49460;SDS011;35355;49.198;-0.368;2023-05-16T03:35:41;1.88;;;1.30;;
49460;SDS011;35355;49.198;-0.368;2023-05-16T03:38:07;6.03;;;1.80;;
49460;SDS011;35355;49.198;-0.368;2023-05-16T03:40:33;4.45;;;1.45;;
49460;SDS011;35355;49.198;-0.368;2023-05-16T03:42:58;8.88;;;1.58;;
49460;SDS011;35355;49.198;-0.368;2023-05-16T03:45:24;5.75;;;1.80;;
49460;SDS011;35355;49.198;-0.368;2023-05-16T03:47:49;5.50;;;1.77;;
49460;SDS011;35355;49.198;-0.368;2023-05-16T03:50:14;4.07;;;1.42;;
49460;SDS011;35355;49.198;-0.368;2023-05-16T03:52:40;4.95;;;1.60;;
49460;SDS011;35355;49.198;-0.368;2023-05-16T03:55:06;4.03;;;1.80;;
49460;SDS011;35355;49.198;-0.368;2023-05-16T03:57:32;5.47;;;2.00;;
49460;SDS011;35355;49.198;-0.368;2023-05-16T03:59:58;6.38;;;1.85;;
49460;SDS011;35355;49.198;-0.368;2023-05-16T04:02:24;6.47;;;1.67;;
49460;SDS011;35355;49.198;-0.368;2023-05-16T04:04:49;4.97;;;1.55;;
49460;SDS011;35355;49.198;-0.368;2023-05-16T04:07:15;5.28;;;1.88;;
49460;SDS011;35355;49.198;-0.368;2023-05-16T04:09:40;3.55;;;1.80;;
49460;SDS011;35355;49.198;-0.368;2023-05-16T04:12:06;7.80;;;2.22;;
49460;SDS011;35355;49.198;-0.368;2023-05-16T04:14:32;7.05;;;2.20;;
49460;SDS011;35355;49.198;-0.368;2023-05-16T04:16:59;9.57;;;2.10;;
49460;SDS011;35355;49.198;-0.368;2023-05-16T04:19:24;10.48;;;1.77;;
49460;SDS011;35355;49.198;-0.368;2023-05-16T04:21:50;4.07;;;1.90;;
49460;SDS011;35355;49.198;-0.368;2023-05-16T04:24:16;4.95;;;1.60;;
49460;SDS011;35355;49.198;-0.368;2023-05-16T04:26:41;9.82;;;2.58;;
49460;SDS011;35355;49.198;-0.368;2023-05-16T04:29:06;7.40;;;1.70;;
49460;SDS011;35355;49.198;-0.368;2023-05-16T04:31:32;4.35;;;2.13;;
49460;SDS011;35355;49.198;-0.368;2023-05-16T04:33:57;10.30;;;2.35;;
49460;SDS011;35355;49.198;-0.368;2023-05-16T04:36:22;6.25;;;2.17;;
49460;SDS011;35355;49.198;-0.368;2023-05-16T04:38:48;5.80;;;2.25;;
49460;SDS011;35355;49.198;-0.368;2023-05-16T04:41:14;4.75;;;1.77;;
49460;SDS011;35355;49.198;-0.368;2023-05-16T04:43:39;7.43;;;3.30;;
49460;SDS011;35355;49.198;-0.368;2023-05-16T04:46:06;4.13;;;1.80;;
49460;SDS011;35355;49.198;-0.368;2023-05-16T04:48:31;6.35;;;2.38;;
49460;SDS011;35355;49.198;-0.368;2023-05-16T04:50:57;6.78;;;2.50;;
49460;SDS011;35355;49.198;-0.368;2023-05-16T04:53:23;7.13;;;2.78;;
49460;SDS011;35355;49.198;-0.368;2023-05-16T04:55:48;5.50;;;2.33;;
49460;SDS011;35355;49.198;-0.368;2023-05-16T04:58:14;8.05;;;3.15;;
49460;SDS011;35355;49.198;-0.368;2023-05-16T05:00:39;16.52;;;3.80;;
49460;SDS011;35355;49.198;-0.368;2023-05-16T05:03:05;6.40;;;2.88;;
49460;SDS011;35355;49.198;-0.368;2023-05-16T05:05:31;11.85;;;2.90;;
49460;SDS011;35355;49.198;-0.368;2023-05-16T05:07:57;11.93;;;2.92;;
49460;SDS011;35355;49.198;-0.368;2023-05-16T05:10:22;10.48;;;2.92;;
49460;SDS011;35355;49.198;-0.368;2023-05-16T05:12:48;7.32;;;2.95;;
49460;SDS011;35355;49.198;-0.368;2023-05-16T05:15:13;13.20;;;2.60;;
49460;SDS011;35355;49.198;-0.368;2023-05-16T05:17:38;10.63;;;2.83;;
49460;SDS011;35355;49.198;-0.368;2023-05-16T05:20:04;9.57;;;2.53;;
49460;SDS011;35355;49.198;-0.368;2023-05-16T05:22:30;7.13;;;2.70;;
49460;SDS011;35355;49.198;-0.368;2023-05-16T05:24:56;11.05;;;3.78;;
49460;SDS011;35355;49.198;-0.368;2023-05-16T05:27:21;10.32;;;3.13;;
49460;SDS011;35355;49.198;-0.368;2023-05-16T05:29:47;8.50;;;2.78;;
49460;SDS011;35355;49.198;-0.368;2023-05-16T05:32:12;4.55;;;2.25;;
49460;SDS011;35355;49.198;-0.368;2023-05-16T05:34:38;12.90;;;3.63;;
49460;SDS011;35355;49.198;-0.368;2023-05-16T05:37:03;9.57;;;2.75;;
49460;SDS011;35355;49.198;-0.368;2023-05-16T05:39:29;7.82;;;2.47;;
49460;SDS011;35355;49.198;-0.368;2023-05-16T05:41:54;15.65;;;3.75;;
49460;SDS011;35355;49.198;-0.368;2023-05-16T05:44:19;5.25;;;2.30;;
49460;SDS011;35355;49.198;-0.368;2023-05-16T05:46:45;8.73;;;2.13;;
49460;SDS011;35355;49.198;-0.368;2023-05-16T05:49:10;6.55;;;2.13;;
49460;SDS011;35355;49.198;-0.368;2023-05-16T05:51:36;8.20;;;2.15;;
49460;SDS011;35355;49.198;-0.368;2023-05-16T05:54:01;9.10;;;2.85;;
49460;SDS011;35355;49.198;-0.368;2023-05-16T05:56:27;8.27;;;2.33;;
49460;SDS011;35355;49.198;-0.368;2023-05-16T05:58:53;8.00;;;2.50;;
49460;SDS011;35355;49.198;-0.368;2023-05-16T06:01:18;6.47;;;2.25;;
49460;SDS011;35355;49.198;-0.368;2023-05-16T06:03:45;12.50;;;2.20;;
49460;SDS011;35355;49.198;-0.368;2023-05-16T06:06:11;8.23;;;2.45;;
49460;SDS011;35355;49.198;-0.368;2023-05-16T06:08:36;12.80;;;2.53;;
49460;SDS011;35355;49.198;-0.368;2023-05-16T06:11:01;6.95;;;1.83;;
49460;SDS011;35355;49.198;-0.368;2023-05-16T06:13:26;8.77;;;2.47;;
49460;SDS011;35355;49.198;-0.368;2023-05-16T06:15:52;8.48;;;1.75;;
49460;SDS011;35355;49.198;-0.368;2023-05-16T06:18:18;7.85;;;2.45;;
49460;SDS011;35355;49.198;-0.368;2023-05-16T06:20:44;5.15;;;1.48;;
49460;SDS011;35355;49.198;-0.368;2023-05-16T06:23:10;10.85;;;1.95;;
49460;SDS011;35355;49.198;-0.368;2023-05-16T06:25:35;12.95;;;1.73;;
49460;SDS011;35355;49.198;-0.368;2023-05-16T06:28:01;9.45;;;2.45;;
49460;SDS011;35355;49.198;-0.368;2023-05-16T06:30:26;8.75;;;2.45;;
49460;SDS011;35355;49.198;-0.368;2023-05-16T06:32:52;9.15;;;1.70;;
49460;SDS011;35355;49.198;-0.368;2023-05-16T06:35:17;11.73;;;1.67;;
49460;SDS011;35355;49.198;-0.368;2023-05-16T06:37:42;15.43;;;2.60;;
49460;SDS011;35355;49.198;-0.368;2023-05-16T06:40:08;9.65;;;1.90;;
49460;SDS011;35355;49.198;-0.368;2023-05-16T06:42:33;13.63;;;3.17;;
49460;SDS011;35355;49.198;-0.368;2023-05-16T06:44:59;13.95;;;2.30;;
49460;SDS011;35355;49.198;-0.368;2023-05-16T06:47:24;8.35;;;1.90;;
49460;SDS011;35355;49.198;-0.368;2023-05-16T06:49:50;10.40;;;1.88;;
49460;SDS011;35355;49.198;-0.368;2023-05-16T06:52:15;12.80;;;2.80;;
49460;SDS011;35355;49.198;-0.368;2023-05-16T06:54:41;3.38;;;1.23;;
49460;SDS011;35355;49.198;-0.368;2023-05-16T06:57:06;11.30;;;1.90;;
49460;SDS011;35355;49.198;-0.368;2023-05-16T06:59:32;13.00;;;1.60;;
49460;SDS011;35355;49.198;-0.368;2023-05-16T07:01:59;10.75;;;1.58;;
49460;SDS011;35355;49.198;-0.368;2023-05-16T07:04:25;9.13;;;1.33;;
49460;SDS011;35355;49.198;-0.368;2023-05-16T07:06:51;4.47;;;1.45;;
49460;SDS011;35355;49.198;-0.368;2023-05-16T07:09:16;7.90;;;1.60;;
49460;SDS011;35355;49.198;-0.368;2023-05-16T07:11:41;10.88;;;1.38;;
49460;SDS011;35355;49.198;-0.368;2023-05-16T07:14:07;8.35;;;1.40;;
49460;SDS011;35355;49.198;-0.368;2023-05-16T07:16:32;7.63;;;0.93;;
49460;SDS011;35355;49.198;-0.368;2023-05-16T07:18:57;6.20;;;1.30;;
49460;SDS011;35355;49.198;-0.368;2023-05-16T07:21:23;4.78;;;1.05;;
49460;SDS011;35355;49.198;-0.368;2023-05-16T07:23:49;12.48;;;2.28;;
49460;SDS011;35355;49.198;-0.368;2023-05-16T07:26:14;13.18;;;1.88;;
49460;SDS011;35355;49.198;-0.368;2023-05-16T07:28:40;12.25;;;2.10;;
49460;SDS011;35355;49.198;-0.368;2023-05-16T07:31:05;12.13;;;0.82;;
49460;SDS011;35355;49.198;-0.368;2023-05-16T07:33:32;6.30;;;1.13;;
49460;SDS011;35355;49.198;-0.368;2023-05-16T07:35:57;5.30;;;0.68;;
49460;SDS011;35355;49.198;-0.368;2023-05-16T07:38:23;7.13;;;0.85;;
49460;SDS011;35355;49.198;-0.368;2023-05-16T07:40:48;10.93;;;1.98;;
49460;SDS011;35355;49.198;-0.368;2023-05-16T07:43:14;6.05;;;1.17;;
49460;SDS011;35355;49.198;-0.368;2023-05-16T07:45:39;6.63;;;1.10;;
49460;SDS011;35355;49.198;-0.368;2023-05-16T07:48:04;8.65;;;1.17;;
49460;SDS011;35355;49.198;-0.368;2023-05-16T07:50:30;4.85;;;0.90;;
49460;SDS011;35355;49.198;-0.368;2023-05-16T07:52:55;9.68;;;0.90;;
49460;SDS011;35355;49.198;-0.368;2023-05-16T07:55:20;5.43;;;0.90;;
49460;SDS011;35355;49.198;-0.368;2023-05-16T07:57:46;7.93;;;1.13;;
49460;SDS011;35355;49.198;-0.368;2023-05-16T08:00:13;8.68;;;1.30;;
49460;SDS011;35355;49.198;-0.368;2023-05-16T08:02:38;8.00;;;0.95;;
49460;SDS011;35355;49.198;-0.368;2023-05-16T08:05:05;3.97;;;0.85;;
49460;SDS011;35355;49.198;-0.368;2023-05-16T08:07:30;8.25;;;1.30;;
49460;SDS011;35355;49.198;-0.368;2023-05-16T08:09:56;6.82;;;1.23;;
49460;SDS011;35355;49.198;-0.368;2023-05-16T08:12:22;7.85;;;1.08;;
49460;SDS011;35355;49.198;-0.368;2023-05-16T08:14:48;8.18;;;0.80;;
49460;SDS011;35355;49.198;-0.368;2023-05-16T08:17:13;7.13;;;1.08;;
49460;SDS011;35355;49.198;-0.368;2023-05-16T08:19:39;6.63;;;0.98;;
49460;SDS011;35355;49.198;-0.368;2023-05-16T08:22:05;10.88;;;1.00;;
49460;SDS011;35355;49.198;-0.368;2023-05-16T08:24:31;6.45;;;0.80;;
49460;SDS011;35355;49.198;-0.368;2023-05-16T08:26:56;6.38;;;1.00;;
49460;SDS011;35355;49.198;-0.368;2023-05-16T08:29:22;10.82;;;1.02;;
49460;SDS011;35355;49.198;-0.368;2023-05-16T08:31:47;3.20;;;0.70;;
49460;SDS011;35355;49.198;-0.368;2023-05-16T08:34:12;10.23;;;1.15;;
49460;SDS011;35355;49.198;-0.368;2023-05-16T08:36:38;7.75;;;1.30;;
49460;SDS011;35355;49.198;-0.368;2023-05-16T08:39:03;8.88;;;1.15;;
49460;SDS011;35355;49.198;-0.368;2023-05-16T08:41:29;14.00;;;2.55;;
49460;SDS011;35355;49.198;-0.368;2023-05-16T08:43:55;6.97;;;0.85;;
49460;SDS011;35355;49.198;-0.368;2023-05-16T08:46:21;10.73;;;1.23;;
49460;SDS011;35355;49.198;-0.368;2023-05-16T08:48:49;7.30;;;1.10;;
49460;SDS011;35355;49.198;-0.368;2023-05-16T08:51:17;11.00;;;1.35;;
49460;SDS011;35355;49.198;-0.368;2023-05-16T08:53:44;6.60;;;1.10;;
49460;SDS011;35355;49.198;-0.368;2023-05-16T08:56:21;14.23;;;1.17;;
49460;SDS011;35355;49.198;-0.368;2023-05-16T08:58:48;8.38;;;1.40;;
49460;SDS011;35355;49.198;-0.368;2023-05-16T09:01:15;6.85;;;0.93;;
49460;SDS011;35355;49.198;-0.368;2023-05-16T09:03:42;8.65;;;1.50;;
49460;SDS011;35355;49.198;-0.368;2023-05-16T09:06:08;9.63;;;1.30;;
49460;SDS011;35355;49.198;-0.368;2023-05-16T09:08:33;4.88;;;0.60;;
49460;SDS011;35355;49.198;-0.368;2023-05-16T09:10:59;8.60;;;1.35;;
49460;SDS011;35355;49.198;-0.368;2023-05-16T09:13:26;5.57;;;1.13;;
49460;SDS011;35355;49.198;-0.368;2023-05-16T09:18:37;9.38;;;1.13;;
49460;SDS011;35355;49.198;-0.368;2023-05-16T09:21:06;7.63;;;0.82;;
49460;SDS011;35355;49.198;-0.368;2023-05-16T09:23:32;10.07;;;1.95;;
49460;SDS011;35355;49.198;-0.368;2023-05-16T09:25:57;9.07;;;0.90;;
49460;SDS011;35355;49.198;-0.368;2023-05-16T09:28:24;4.32;;;1.27;;
49460;SDS011;35355;49.198;-0.368;2023-05-16T09:30:50;7.97;;;1.38;;
49460;SDS011;35355;49.198;-0.368;2023-05-16T09:33:16;7.80;;;1.02;;
49460;SDS011;35355;49.198;-0.368;2023-05-16T09:35:42;4.13;;;1.10;;
49460;SDS011;35355;49.198;-0.368;2023-05-16T09:38:12;3.65;;;1.25;;
49460;SDS011;35355;49.198;-0.368;2023-05-16T09:40:39;4.03;;;0.70;;
49460;SDS011;35355;49.198;-0.368;2023-05-16T09:43:06;6.18;;;0.93;;
49460;SDS011;35355;49.198;-0.368;2023-05-16T09:45:33;8.15;;;0.90;;
49460;SDS011;35355;49.198;-0.368;2023-05-16T09:48:00;5.95;;;1.67;;
49460;SDS011;35355;49.198;-0.368;2023-05-16T09:50:28;8.30;;;1.10;;
49460;SDS011;35355;49.198;-0.368;2023-05-16T09:52:57;7.63;;;0.82;;
49460;SDS011;35355;49.198;-0.368;2023-05-16T09:55:22;6.10;;;0.82;;
49460;SDS011;35355;49.198;-0.368;2023-05-16T09:57:48;4.28;;;0.90;;
49460;SDS011;35355;49.198;-0.368;2023-05-16T10:00:14;5.78;;;1.02;;
49460;SDS011;35355;49.198;-0.368;2023-05-16T10:02:39;6.68;;;0.80;;
49460;SDS011;35355;49.198;-0.368;2023-05-16T10:05:08;8.18;;;1.20;;
49460;SDS011;35355;49.198;-0.368;2023-05-16T10:07:34;5.65;;;0.95;;
49460;SDS011;35355;49.198;-0.368;2023-05-16T10:10:05;4.35;;;0.77;;
49460;SDS011;35355;49.198;-0.368;2023-05-16T10:12:32;7.50;;;1.05;;
49460;SDS011;35355;49.198;-0.368;2023-05-16T10:15:02;9.27;;;1.52;;
49460;SDS011;35355;49.198;-0.368;2023-05-16T10:17:29;6.63;;;1.13;;
49460;SDS011;35355;49.198;-0.368;2023-05-16T10:19:59;7.60;;;1.48;;
49460;SDS011;35355;49.198;-0.368;2023-05-16T10:22:27;7.15;;;0.70;;
49460;SDS011;35355;49.198;-0.368;2023-05-16T10:24:57;4.78;;;1.42;;
49460;SDS011;35355;49.198;-0.368;2023-05-16T10:27:28;6.35;;;1.15;;
49460;SDS011;35355;49.198;-0.368;2023-05-16T10:29:55;4.80;;;1.20;;
49460;SDS011;35355;49.198;-0.368;2023-05-16T10:32:22;6.85;;;1.00;;
49460;SDS011;35355;49.198;-0.368;2023-05-16T10:34:49;4.68;;;0.90;;
49460;SDS011;35355;49.198;-0.368;2023-05-16T10:37:15;5.10;;;0.90;;
49460;SDS011;35355;49.198;-0.368;2023-05-16T10:39:40;10.63;;;1.10;;
49460;SDS011;35355;49.198;-0.368;2023-05-16T10:42:06;8.30;;;1.15;;
49460;SDS011;35355;49.198;-0.368;2023-05-16T10:44:32;7.85;;;1.20;;
49460;SDS011;35355;49.198;-0.368;2023-05-16T10:46:58;4.90;;;1.40;;
49460;SDS011;35355;49.198;-0.368;2023-05-16T10:49:25;5.35;;;0.90;;
49460;SDS011;35355;49.198;-0.368;2023-05-16T10:52:07;4.70;;;1.20;;
49460;SDS011;35355;49.198;-0.368;2023-05-16T10:54:35;5.57;;;1.23;;
49460;SDS011;35355;49.198;-0.368;2023-05-16T10:57:05;5.40;;;1.42;;
49460;SDS011;35355;49.198;-0.368;2023-05-16T10:59:41;5.63;;;1.33;;
49460;SDS011;35355;49.198;-0.368;2023-05-16T11:02:26;5.40;;;1.30;;
49460;SDS011;35355;49.198;-0.368;2023-05-16T11:04:55;12.30;;;1.83;;
49460;SDS011;35355;49.198;-0.368;2023-05-16T11:07:24;6.72;;;1.10;;
49460;SDS011;35355;49.198;-0.368;2023-05-16T11:12:44;8.68;;;1.42;;
49460;SDS011;35355;49.198;-0.368;2023-05-16T11:15:19;8.77;;;1.75;;
49460;SDS011;35355;49.198;-0.368;2023-05-16T11:17:45;5.50;;;1.83;;
49460;SDS011;35355;49.198;-0.368;2023-05-16T11:20:30;4.72;;;1.50;;
49460;SDS011;35355;49.198;-0.368;2023-05-16T11:25:57;9.23;;;1.98;;
49460;SDS011;35355;49.198;-0.368;2023-05-16T11:28:24;5.93;;;1.65;;
49460;SDS011;35355;49.198;-0.368;2023-05-16T11:30:53;8.40;;;2.17;;
49460;SDS011;35355;49.198;-0.368;2023-05-16T11:33:22;12.07;;;1.85;;
49460;SDS011;35355;49.198;-0.368;2023-05-16T11:36:01;4.20;;;1.17;;
49460;SDS011;35355;49.198;-0.368;2023-05-16T11:38:31;5.97;;;1.35;;
49460;SDS011;35355;49.198;-0.368;2023-05-16T11:41:02;8.13;;;1.55;;
49460;SDS011;35355;49.198;-0.368;2023-05-16T11:43:35;6.18;;;1.42;;
49460;SDS011;35355;49.198;-0.368;2023-05-16T11:46:02;5.80;;;1.08;;
49460;SDS011;35355;49.198;-0.368;2023-05-16T11:48:27;7.05;;;1.85;;
49460;SDS011;35355;49.198;-0.368;2023-05-16T11:50:53;6.70;;;1.48;;
49460;SDS011;35355;49.198;-0.368;2023-05-16T11:53:19;7.43;;;1.75;;
49460;SDS011;35355;49.198;-0.368;2023-05-16T11:55:44;6.53;;;1.58;;
49460;SDS011;35355;49.198;-0.368;2023-05-16T11:58:16;6.07;;;1.27;;
49460;SDS011;35355;49.198;-0.368;2023-05-16T12:00:48;12.32;;;2.88;;
49460;SDS011;35355;49.198;-0.368;2023-05-16T12:03:14;6.32;;;1.40;;
49460;SDS011;35355;49.198;-0.368;2023-05-16T12:05:48;8.15;;;1.67;;
49460;SDS011;35355;49.198;-0.368;2023-05-16T12:08:18;7.40;;;1.20;;
49460;SDS011;35355;49.198;-0.368;2023-05-16T12:10:46;9.85;;;1.80;;
49460;SDS011;35355;49.198;-0.368;2023-05-16T12:13:14;11.05;;;1.60;;
49460;SDS011;35355;49.198;-0.368;2023-05-16T12:15:40;6.72;;;1.25;;
49460;SDS011;35355;49.198;-0.368;2023-05-16T12:18:06;4.55;;;1.08;;
49460;SDS011;35355;49.198;-0.368;2023-05-16T12:20:33;4.85;;;0.80;;
49460;SDS011;35355;49.198;-0.368;2023-05-16T12:22:58;10.10;;;1.73;;
49460;SDS011;35355;49.198;-0.368;2023-05-16T12:25:30;11.30;;;1.92;;
49460;SDS011;35355;49.198;-0.368;2023-05-16T12:28:01;3.88;;;1.08;;
49460;SDS011;35355;49.198;-0.368;2023-05-16T12:30:29;10.77;;;1.63;;
49460;SDS011;35355;49.198;-0.368;2023-05-16T12:32:59;6.72;;;1.42;;
49460;SDS011;35355;49.198;-0.368;2023-05-16T12:35:31;8.82;;;1.20;;
49460;SDS011;35355;49.198;-0.368;2023-05-16T12:37:57;6.35;;;1.10;;
49460;SDS011;35355;49.198;-0.368;2023-05-16T12:40:26;8.35;;;1.27;;
49460;SDS011;35355;49.198;-0.368;2023-05-16T12:42:52;7.15;;;0.77;;
49460;SDS011;35355;49.198;-0.368;2023-05-16T12:45:18;10.70;;;1.20;;
49460;SDS011;35355;49.198;-0.368;2023-05-16T12:47:44;5.68;;;1.33;;
49460;SDS011;35355;49.198;-0.368;2023-05-16T12:50:11;11.75;;;1.52;;
49460;SDS011;35355;49.198;-0.368;2023-05-16T12:52:51;12.68;;;1.27;;
49460;SDS011;35355;49.198;-0.368;2023-05-16T12:55:18;8.25;;;0.93;;
49460;SDS011;35355;49.198;-0.368;2023-05-16T12:57:45;8.45;;;0.80;;
49460;SDS011;35355;49.198;-0.368;2023-05-16T13:00:12;8.93;;;1.08;;
49460;SDS011;35355;49.198;-0.368;2023-05-16T13:02:38;5.50;;;1.15;;
49460;SDS011;35355;49.198;-0.368;2023-05-16T13:05:05;7.05;;;1.95;;
49460;SDS011;35355;49.198;-0.368;2023-05-16T13:07:34;3.28;;;0.60;;
49460;SDS011;35355;49.198;-0.368;2023-05-16T13:09:59;4.63;;;0.70;;
49460;SDS011;35355;49.198;-0.368;2023-05-16T13:12:25;6.95;;;0.95;;
49460;SDS011;35355;49.198;-0.368;2023-05-16T13:14:51;6.20;;;0.70;;
49460;SDS011;35355;49.198;-0.368;2023-05-16T13:17:17;6.40;;;0.70;;
49460;SDS011;35355;49.198;-0.368;2023-05-16T13:19:42;8.23;;;0.80;;
49460;SDS011;35355;49.198;-0.368;2023-05-16T13:22:08;3.47;;;0.80;;
49460;SDS011;35355;49.198;-0.368;2023-05-16T13:24:33;8.63;;;1.02;;
49460;SDS011;35355;49.198;-0.368;2023-05-16T13:26:58;4.85;;;0.70;;
49460;SDS011;35355;49.198;-0.368;2023-05-16T13:29:24;6.05;;;1.40;;
49460;SDS011;35355;49.198;-0.368;2023-05-16T13:31:49;14.60;;;0.88;;
49460;SDS011;35355;49.198;-0.368;2023-05-16T13:34:15;12.60;;;1.15;;
49460;SDS011;35355;49.198;-0.368;2023-05-16T13:36:40;8.85;;;0.77;;
49460;SDS011;35355;49.198;-0.368;2023-05-16T13:39:06;8.65;;;0.77;;
49460;SDS011;35355;49.198;-0.368;2023-05-16T13:41:31;6.03;;;0.93;;
49460;SDS011;35355;49.198;-0.368;2023-05-16T13:44:01;4.15;;;0.70;;
49460;SDS011;35355;49.198;-0.368;2023-05-16T13:46:27;3.10;;;0.70;;
49460;SDS011;35355;49.198;-0.368;2023-05-16T13:48:52;8.32;;;1.27;;
49460;SDS011;35355;49.198;-0.368;2023-05-16T13:51:17;4.55;;;0.70;;
49460;SDS011;35355;49.198;-0.368;2023-05-16T13:53:43;3.35;;;0.52;;
49460;SDS011;35355;49.198;-0.368;2023-05-16T13:56:08;10.63;;;0.88;;
49460;SDS011;35355;49.198;-0.368;2023-05-16T13:58:33;6.45;;;1.17;;
49460;SDS011;35355;49.198;-0.368;2023-05-16T14:00:59;8.43;;;0.95;;
49460;SDS011;35355;49.198;-0.368;2023-05-16T14:03:24;4.80;;;0.75;;
49460;SDS011;35355;49.198;-0.368;2023-05-16T14:05:49;4.60;;;1.10;;
49460;SDS011;35355;49.198;-0.368;2023-05-16T14:08:15;7.32;;;0.88;;
49460;SDS011;35355;49.198;-0.368;2023-05-16T14:10:41;8.02;;;0.95;;
49460;SDS011;35355;49.198;-0.368;2023-05-16T14:13:06;7.28;;;0.82;;
49460;SDS011;35355;49.198;-0.368;2023-05-16T14:15:31;6.35;;;1.20;;
49460;SDS011;35355;49.198;-0.368;2023-05-16T14:17:57;4.43;;;0.80;;
49460;SDS011;35355;49.198;-0.368;2023-05-16T14:20:23;7.90;;;0.60;;
49460;SDS011;35355;49.198;-0.368;2023-05-16T14:22:48;4.90;;;0.70;;
49460;SDS011;35355;49.198;-0.368;2023-05-16T14:25:14;9.43;;;1.02;;
49460;SDS011;35355;49.198;-0.368;2023-05-16T14:27:39;3.17;;;0.50;;
49460;SDS011;35355;49.198;-0.368;2023-05-16T14:30:05;5.00;;;0.73;;
49460;SDS011;35355;49.198;-0.368;2023-05-16T14:32:32;6.45;;;1.42;;
49460;SDS011;35355;49.198;-0.368;2023-05-16T14:34:57;6.93;;;0.70;;
49460;SDS011;35355;49.198;-0.368;2023-05-16T14:37:23;6.53;;;1.00;;
49460;SDS011;35355;49.198;-0.368;2023-05-16T14:39:48;5.25;;;0.70;;
49460;SDS011;35355;49.198;-0.368;2023-05-16T14:42:14;8.52;;;1.00;;
49460;SDS011;35355;49.198;-0.368;2023-05-16T14:44:40;4.57;;;0.75;;
49460;SDS011;35355;49.198;-0.368;2023-05-16T14:47:05;6.72;;;1.42;;
49460;SDS011;35355;49.198;-0.368;2023-05-16T14:49:31;6.65;;;0.60;;